Time;durP1;ratioP1;P1;durP2;ratioP2;P2;SDS_P1;SDS_P2;PMS_P1;PMS_P2;Temp;Humidity;BMP_temperature;BMP_pressure;BME280_temperature;BME280_humidity;BME280_pressure;Samples;Min_cycle;Max_cycle;Signal;HPM_P1;HPM_P2
2022/06/24 00:00:18;;;;;;;13.55;6.57;;;;;;;;;;5055080;28;20037;-51
2022/06/24 00:02:48;;;;;;;7.60;5.32;;;;;;;;;;5054921;28;20033;-54
2022/06/24 00:05:16;;;;;;;9.57;6.43;;;;;;;;;;5055064;28;20515;-55
2022/06/24 00:07:45;;;;;;;7.65;5.40;;;;;;;;;;5054876;28;20527;-54
2022/06/24 00:10:18;;;;;;;8.82;5.97;;;;;;;;;;5054783;28;20033;-54
2022/06/24 00:12:46;;;;;;;;;;;;;;;;;;5055233;28;20080;-54
2022/06/24 00:15:14;;;;;;;11.10;6.03;;;;;;;;;;5054861;28;19920;-55
2022/06/24 00:17:42;;;;;;;13.75;6.63;;;;;;;;;;5054884;28;20033;-55
2022/06/24 00:20:16;;;;;;;9.13;6.68;;;;;;;;;;5054803;28;20052;-54
2022/06/24 00:22:46;;;;;;;9.68;7.13;;;;;;;;;;5054501;28;20037;-53
2022/06/24 00:25:22;;;;;;;9.85;7.00;;;;;;;;;;5054665;28;20045;-50
2022/06/24 00:28:07;;;;;;;9.65;6.93;;;;;;;;;;5065973;28;20510;-56
2022/06/24 00:30:37;;;;;;;12.80;7.30;;;;;;;;;;5090123;28;20052;-44
2022/06/24 00:33:16;;;;;;;11.15;7.22;;;;;;;;;;5074668;28;20048;-50
2022/06/24 00:35:51;;;;;;;11.60;7.00;;;;;;;;;;5074452;28;20138;-55
2022/06/24 00:38:24;;;;;;;10.00;6.75;;;;;;;;;;5074364;28;20116;-55
2022/06/24 00:41:12;;;;;;;10.05;6.97;;;;;;;;;;5074275;28;20041;-55
2022/06/24 00:43:44;;;;;;;8.13;6.03;;;;;;;;;;5074254;28;20526;-52
2022/06/24 00:46:23;;;;;;;12.48;7.47;;;;;;;;;;5074240;28;20434;-55
2022/06/24 00:48:53;;;;;;;8.88;7.38;;;;;;;;;;5072523;28;20048;-53
2022/06/24 00:51:22;;;;;;;8.10;6.60;;;;;;;;;;5074145;28;20045;-55
2022/06/24 00:53:55;;;;;;;8.73;6.70;;;;;;;;;;5073839;28;20449;-50
2022/06/24 00:56:27;;;;;;;12.93;8.05;;;;;;;;;;5074142;28;20041;-53
2022/06/24 00:59:00;;;;;;;10.02;7.80;;;;;;;;;;5073984;28;20048;-55
2022/06/24 01:01:32;;;;;;;13.15;7.07;;;;;;;;;;5073751;28;20039;-55
2022/06/24 01:04:04;;;;;;;10.27;7.68;;;;;;;;;;5073949;28;20079;-53
2022/06/24 01:06:31;;;;;;;11.27;8.27;;;;;;;;;;5073926;28;20053;-56
2022/06/24 01:08:58;;;;;;;10.93;7.40;;;;;;;;;;5073593;28;20051;-55
2022/06/24 01:11:40;;;;;;;13.85;8.73;;;;;;;;;;5073574;28;20115;-55
2022/06/24 01:14:09;;;;;;;12.00;8.80;;;;;;;;;;5073434;28;20384;-55
2022/06/24 01:16:36;;;;;;;10.02;6.43;;;;;;;;;;5073579;28;20435;-52
2022/06/24 01:19:12;;;;;;;11.30;6.28;;;;;;;;;;5073423;28;20403;-53
2022/06/24 01:21:48;;;;;;;11.20;6.10;;;;;;;;;;5073342;28;20056;-54
2022/06/24 01:24:20;;;;;;;10.32;7.43;;;;;;;;;;5073511;28;20044;-54
2022/06/24 01:26:56;;;;;;;12.50;7.07;;;;;;;;;;5073271;28;20082;-54
2022/06/24 01:29:25;;;;;;;7.93;6.07;;;;;;;;;;5068047;28;20080;-55
2022/06/24 01:31:53;;;;;;;13.20;5.70;;;;;;;;;;5053152;28;20496;-52
2022/06/24 01:34:23;;;;;;;10.13;7.78;;;;;;;;;;5053357;28;20582;-54
2022/06/24 01:36:51;;;;;;;7.43;6.30;;;;;;;;;;5053073;28;20051;-55
2022/06/24 01:39:20;;;;;;;9.05;7.10;;;;;;;;;;5053413;28;20041;-55
2022/06/24 01:41:49;;;;;;;10.77;8.13;;;;;;;;;;5052793;28;20041;-54
2022/06/24 01:44:17;;;;;;;16.35;7.07;;;;;;;;;;5052955;28;20048;-53
2022/06/24 01:46:44;;;;;;;8.13;6.47;;;;;;;;;;5052938;28;20159;-54
2022/06/24 01:49:12;;;;;;;8.60;6.32;;;;;;;;;;5053089;28;20075;-54
2022/06/24 01:51:42;;;;;;;8.48;5.53;;;;;;;;;;5053009;28;20036;-53
2022/06/24 01:54:09;;;;;;;9.20;6.95;;;;;;;;;;5052917;28;20409;-55
2022/06/24 01:56:37;;;;;;;9.15;7.60;;;;;;;;;;5052962;28;20048;-46
2022/06/24 01:59:12;;;;;;;8.20;7.15;;;;;;;;;;5052775;28;20052;-53
2022/06/24 02:01:40;;;;;;;9.88;7.30;;;;;;;;;;5052758;28;20041;-55
2022/06/24 02:04:09;;;;;;;9.77;7.22;;;;;;;;;;5052805;28;20037;-55
2022/06/24 02:06:36;;;;;;;10.23;7.30;;;;;;;;;;5052562;28;20032;-44
2022/06/24 02:09:05;;;;;;;9.20;7.53;;;;;;;;;;5052731;28;20488;-55
2022/06/24 02:14:20;;;;;;;13.43;7.10;;;;;;;;;;5052274;28;20049;-55
2022/06/24 02:16:47;;;;;;;7.70;6.53;;;;;;;;;;5052460;28;20072;-54
2022/06/24 02:19:14;;;;;;;9.05;6.93;;;;;;;;;;5052223;28;20043;-55
2022/06/24 02:21:42;;;;;;;7.30;5.93;;;;;;;;;;5051290;28;20488;-55
2022/06/24 02:24:11;;;;;;;7.55;6.63;;;;;;;;;;5052362;28;20123;-55
2022/06/24 02:26:40;;;;;;;7.45;6.20;;;;;;;;;;5053936;28;20400;-55
2022/06/24 02:29:11;;;;;;;7.75;6.22;;;;;;;;;;5072238;28;20040;-55
2022/06/24 02:31:41;;;;;;;7.40;5.38;;;;;;;;;;5072174;28;20573;-55
2022/06/24 02:34:09;;;;;;;7.10;5.60;;;;;;;;;;5072414;28;20045;-55
2022/06/24 02:36:36;;;;;;;8.50;5.85;;;;;;;;;;5072104;28;20458;-50
2022/06/24 02:39:04;;;;;;;6.07;5.47;;;;;;;;;;5072451;28;20048;-53
2022/06/24 02:41:31;;;;;;;9.32;5.25;;;;;;;;;;5070424;28;20047;-53
2022/06/24 02:43:58;;;;;;;11.32;6.40;;;;;;;;;;5072208;28;20036;-54
2022/06/24 02:46:25;;;;;;;7.55;6.13;;;;;;;;;;5072223;28;20059;-54
2022/06/24 02:48:53;;;;;;;7.30;5.57;;;;;;;;;;5071958;28;20037;-53
2022/06/24 02:51:20;;;;;;;7.60;5.35;;;;;;;;;;5072406;28;20076;-55
2022/06/24 02:53:48;;;;;;;10.55;6.45;;;;;;;;;;5072292;28;20407;-55
2022/06/24 02:56:15;;;;;;;8.88;5.95;;;;;;;;;;5072148;28;20131;-55
2022/06/24 02:58:43;;;;;;;7.60;6.07;;;;;;;;;;5071832;28;20041;-51
2022/06/24 03:01:10;;;;;;;7.35;5.60;;;;;;;;;;5072057;28;20035;-56
2022/06/24 03:03:38;;;;;;;6.43;4.97;;;;;;;;;;5071887;28;20040;-55
2022/06/24 03:06:09;;;;;;;5.10;3.50;;;;;;;;;;5071931;28;20084;-45
2022/06/24 03:08:37;;;;;;;7.45;4.22;;;;;;;;;;5071817;28;20059;-52
2022/06/24 03:11:12;;;;;;;7.78;4.80;;;;;;;;;;5071865;28;20123;-54
2022/06/24 03:13:39;;;;;;;8.15;4.03;;;;;;;;;;5070399;28;20056;-56
2022/06/24 03:16:09;;;;;;;4.80;3.67;;;;;;;;;;5071783;28;20075;-55
2022/06/24 03:18:36;;;;;;;5.63;3.78;;;;;;;;;;5071680;28;20044;-51
2022/06/24 03:21:06;;;;;;;4.38;3.45;;;;;;;;;;5072137;28;20040;-56
2022/06/24 03:23:34;;;;;;;5.50;3.17;;;;;;;;;;5072041;28;20144;-52
2022/06/24 03:26:02;;;;;;;4.72;3.38;;;;;;;;;;5071162;28;20128;-56
2022/06/24 03:28:30;;;;;;;5.57;2.80;;;;;;;;;;5071659;28;20446;-56
2022/06/24 03:30:58;;;;;;;7.00;2.50;;;;;;;;;;5071418;28;20051;-56
2022/06/24 03:33:25;;;;;;;2.80;2.03;;;;;;;;;;5071886;28;20049;-54
2022/06/24 03:35:52;;;;;;;4.43;2.03;;;;;;;;;;5071545;28;20040;-56
2022/06/24 03:38:20;;;;;;;4.82;2.30;;;;;;;;;;5071612;28;20044;-54
2022/06/24 03:40:47;;;;;;;4.30;2.47;;;;;;;;;;5071845;28;20131;-55
2022/06/24 03:43:15;;;;;;;5.78;1.95;;;;;;;;;;5071653;28;20036;-55
2022/06/24 03:45:43;;;;;;;5.32;1.83;;;;;;;;;;5071652;28;20040;-56
2022/06/24 03:48:11;;;;;;;3.80;1.83;;;;;;;;;;5070529;28;20049;-51
2022/06/24 03:50:39;;;;;;;3.95;1.92;;;;;;;;;;5071312;28;20040;-56
2022/06/24 03:53:12;;;;;;;2.65;1.90;;;;;;;;;;5072701;28;20033;-53
2022/06/24 03:55:40;;;;;;;4.00;2.00;;;;;;;;;;5075059;28;20044;-55
2022/06/24 03:58:11;;;;;;;5.45;2.25;;;;;;;;;;5075285;28;20059;-56
2022/06/24 04:00:38;;;;;;;5.85;1.63;;;;;;;;;;5074729;28;20533;-55
2022/06/24 04:03:06;;;;;;;4.65;1.60;;;;;;;;;;5073942;28;20135;-55
2022/06/24 04:05:34;;;;;;;3.90;1.70;;;;;;;;;;5075030;28;20430;-56
2022/06/24 04:08:02;;;;;;;5.80;1.95;;;;;;;;;;5075058;28;20553;-54
2022/06/24 04:10:30;;;;;;;3.45;1.45;;;;;;;;;;5074933;28;20127;-56
2022/06/24 04:12:57;;;;;;;2.67;1.63;;;;;;;;;;5074440;28;20053;-55
2022/06/24 04:15:25;;;;;;;2.75;1.80;;;;;;;;;;5074600;28;20533;-55
2022/06/24 04:17:55;;;;;;;2.88;1.63;;;;;;;;;;5074673;28;20067;-57
2022/06/24 04:20:23;;;;;;;3.15;2.00;;;;;;;;;;5074575;28;20052;-56
2022/06/24 04:22:50;;;;;;;3.72;1.90;;;;;;;;;;5074798;28;20036;-55
2022/06/24 04:25:20;;;;;;;4.38;2.10;;;;;;;;;;5074694;28;20048;-57
2022/06/24 04:27:48;;;;;;;20.90;13.82;;;;;;;;;;5074561;28;20451;-56
2022/06/24 04:30:16;;;;;;;4.53;2.95;;;;;;;;;;5074368;28;20044;-57
2022/06/24 04:32:45;;;;;;;4.22;1.80;;;;;;;;;;5074224;28;20514;-57
2022/06/24 04:35:16;;;;;;;2.65;1.50;;;;;;;;;;5074448;28;20058;-57
2022/06/24 04:37:43;;;;;;;3.42;1.92;;;;;;;;;;5074446;28;20457;-56
2022/06/24 04:40:13;;;;;;;12.23;5.03;;;;;;;;;;5074328;28;20579;-58
2022/06/24 04:42:44;;;;;;;3.85;1.88;;;;;;;;;;5074310;28;20047;-56
2022/06/24 04:45:12;;;;;;;10.00;1.90;;;;;;;;;;5074064;28;20105;-58
2022/06/24 04:47:39;;;;;;;3.55;1.60;;;;;;;;;;5074291;28;20044;-57
2022/06/24 04:50:07;;;;;;;4.13;1.70;;;;;;;;;;5074276;28;20127;-57
2022/06/24 04:52:36;;;;;;;5.18;1.58;;;;;;;;;;5074565;28;20483;-58
2022/06/24 04:55:04;;;;;;;30.98;20.80;;;;;;;;;;5074237;28;20116;-57
2022/06/24 04:57:32;;;;;;;9.48;5.75;;;;;;;;;;5073921;28;20048;-57
2022/06/24 04:59:59;;;;;;;4.75;1.90;;;;;;;;;;5074126;28;20059;-55
2022/06/24 05:02:26;;;;;;;2.08;1.10;;;;;;;;;;5073788;28;20040;-56
2022/06/24 05:04:55;;;;;;;2.55;1.10;;;;;;;;;;5073100;28;20522;-56
2022/06/24 05:07:22;;;;;;;4.07;1.48;;;;;;;;;;5073612;28;20063;-57
2022/06/24 05:09:49;;;;;;;4.80;1.20;;;;;;;;;;5073792;28;20036;-58
2022/06/24 05:12:16;;;;;;;2.17;1.10;;;;;;;;;;5073273;28;20044;-54
2022/06/24 05:14:44;;;;;;;4.50;1.23;;;;;;;;;;5073583;28;20037;-55
2022/06/24 05:17:15;;;;;;;3.65;1.08;;;;;;;;;;5073743;28;20484;-57
2022/06/24 05:19:42;;;;;;;55.90;34.40;;;;;;;;;;5073547;28;20455;-55
2022/06/24 05:22:10;;;;;;;3.90;2.15;;;;;;;;;;5073519;28;20049;-56
2022/06/24 05:24:37;;;;;;;4.60;3.00;;;;;;;;;;5072884;28;20516;-43
2022/06/24 05:27:05;;;;;;;5.65;1.27;;;;;;;;;;5073437;28;20040;-57
2022/06/24 05:29:34;;;;;;;2.88;0.93;;;;;;;;;;5073452;28;20036;-58
2022/06/24 05:32:02;;;;;;;2.83;1.08;;;;;;;;;;5072942;28;20052;-53
2022/06/24 05:34:29;;;;;;;1.98;0.90;;;;;;;;;;5073193;28;20564;-54
2022/06/24 05:36:57;;;;;;;4.53;1.08;;;;;;;;;;5073059;28;20075;-57
2022/06/24 05:39:24;;;;;;;2.60;0.80;;;;;;;;;;5073141;28;20051;-58
2022/06/24 05:41:51;;;;;;;3.10;0.80;;;;;;;;;;5073227;28;20041;-57
2022/06/24 05:44:18;;;;;;;2.78;0.80;;;;;;;;;;5072882;28;20033;-55
2022/06/24 05:46:47;;;;;;;3.55;0.73;;;;;;;;;;5072845;28;20038;-56
2022/06/24 05:49:14;;;;;;;1.35;0.75;;;;;;;;;;5072780;28;20075;-57
2022/06/24 05:51:42;;;;;;;3.55;0.90;;;;;;;;;;5072765;28;20058;-58
2022/06/24 05:56:55;;;;;;;3.20;0.70;;;;;;;;;;5072653;28;20049;-56
2022/06/24 05:59:22;;;;;;;3.65;0.98;;;;;;;;;;5072880;28;20114;-56
2022/06/24 06:01:51;;;;;;;1.20;0.75;;;;;;;;;;5044745;28;20126;-57
2022/06/24 06:04:18;;;;;;;1.38;0.82;;;;;;;;;;5092317;28;20040;-57
2022/06/24 06:06:45;;;;;;;1.45;0.90;;;;;;;;;;5092768;28;20044;-58
2022/06/24 06:09:13;;;;;;;2.28;0.70;;;;;;;;;;5092862;28;20040;-55
2022/06/24 06:11:40;;;;;;;1.67;0.63;;;;;;;;;;5092750;28;20123;-52
2022/06/24 06:14:07;;;;;;;1.73;0.70;;;;;;;;;;5092882;28;20518;-56
2022/06/24 06:16:35;;;;;;;78.18;49.35;;;;;;;;;;5092854;28;20036;-57
2022/06/24 06:19:02;;;;;;;2.65;1.63;;;;;;;;;;5092549;28;20043;-54
2022/06/24 06:21:29;;;;;;;2.05;0.70;;;;;;;;;;5092749;28;20078;-57
2022/06/24 06:23:57;;;;;;;2.38;0.80;;;;;;;;;;5092735;28;20068;-57
2022/06/24 06:26:24;;;;;;;1.98;0.82;;;;;;;;;;5092610;28;20082;-54
2022/06/24 06:28:53;;;;;;;1.05;0.60;;;;;;;;;;5072295;28;20041;-57
2022/06/24 06:31:20;;;;;;;1.45;0.70;;;;;;;;;;5072152;28;20041;-54
2022/06/24 06:33:48;;;;;;;1.65;0.75;;;;;;;;;;5072273;28;20090;-53
2022/06/24 06:36:16;;;;;;;1.70;0.60;;;;;;;;;;5072259;28;20043;-55
2022/06/24 06:38:43;;;;;;;4.35;0.60;;;;;;;;;;5072235;28;20037;-57
2022/06/24 06:41:14;;;;;;;3.30;0.90;;;;;;;;;;5072411;28;20036;-55
2022/06/24 06:43:41;;;;;;;5.45;3.60;;;;;;;;;;5072157;28;20046;-56
2022/06/24 06:46:10;;;;;;;0.85;0.70;;;;;;;;;;5072219;28;20404;-46
2022/06/24 06:48:39;;;;;;;2.72;0.80;;;;;;;;;;5072383;28;20037;-54
2022/06/24 06:51:06;;;;;;;3.55;1.25;;;;;;;;;;5072343;28;20053;-57
2022/06/24 06:53:34;;;;;;;4.07;1.10;;;;;;;;;;5072477;28;20082;-53
2022/06/24 06:56:01;;;;;;;2.38;0.65;;;;;;;;;;5071987;28;20496;-58
2022/06/24 06:58:28;;;;;;;0.98;0.60;;;;;;;;;;5071993;28;20809;-54
2022/06/24 07:00:56;;;;;;;2.10;0.70;;;;;;;;;;5071930;28;20040;-56
2022/06/24 07:03:23;;;;;;;1.55;0.65;;;;;;;;;;5071910;28;20043;-56
2022/06/24 07:05:51;;;;;;;1.40;0.73;;;;;;;;;;5071988;28;20037;-57
2022/06/24 07:08:18;;;;;;;4.40;2.42;;;;;;;;;;5071962;28;20115;-56
2022/06/24 07:10:45;;;;;;;1.85;0.88;;;;;;;;;;5071712;28;20040;-54
2022/06/24 07:13:13;;;;;;;3.70;1.05;;;;;;;;;;5071734;28;20048;-58
2022/06/24 07:15:40;;;;;;;3.17;0.70;;;;;;;;;;5071979;28;20036;-46
2022/06/24 07:18:08;;;;;;;1.80;0.63;;;;;;;;;;5072189;28;20577;-55
2022/06/24 07:20:36;;;;;;;1.42;0.77;;;;;;;;;;5071983;28;20044;-57
2022/06/24 07:23:04;;;;;;;3.53;1.05;;;;;;;;;;5071809;28;20041;-54
2022/06/24 07:25:32;;;;;;;3.05;0.85;;;;;;;;;;5071418;28;20094;-58
2022/06/24 07:28:00;;;;;;;2.35;0.70;;;;;;;;;;5085393;28;20039;-59
2022/06/24 07:30:28;;;;;;;1.90;0.70;;;;;;;;;;5095848;28;20114;-59
2022/06/24 07:32:56;;;;;;;1.98;0.73;;;;;;;;;;5094578;28;20040;-58
2022/06/24 07:35:24;;;;;;;4.68;2.13;;;;;;;;;;5095791;28;20044;-58
2022/06/24 07:38:11;;;;;;;0.88;0.68;;;;;;;;;;5095411;28;20071;-50
2022/06/24 07:40:39;;;;;;;1.40;0.70;;;;;;;;;;5095725;28;20044;-49
2022/06/24 07:43:06;;;;;;;1.98;0.80;;;;;;;;;;5095863;28;20503;-47
2022/06/24 07:45:34;;;;;;;1.13;0.80;;;;;;;;;;5095868;28;20036;-59
2022/06/24 07:52:15;;;;;;;1.48;0.80;;;;;;;;;;5193218;27;20389;-54
2022/06/24 07:54:43;;;;;;;1.35;0.80;;;;;;;;;;5171773;27;20545;-50
2022/06/24 07:57:12;;;;;;;1.98;0.68;;;;;;;;;;5171652;27;20066;-52
2022/06/24 07:59:45;;;;;;;0.80;0.70;;;;;;;;;;5171840;27;20031;-51
2022/06/24 08:02:12;;;;;;;2.75;1.05;;;;;;;;;;5171915;27;20050;-55
2022/06/24 08:04:39;;;;;;;1.23;0.77;;;;;;;;;;5171788;27;20158;-49
2022/06/24 08:07:07;;;;;;;2.38;0.63;;;;;;;;;;5171775;27;20049;-52
2022/06/24 08:09:36;;;;;;;1.50;0.82;;;;;;;;;;5171957;27;20056;-56
2022/06/24 08:12:04;;;;;;;1.77;0.80;;;;;;;;;;5171707;27;20039;-56
2022/06/24 08:14:32;;;;;;;0.95;0.55;;;;;;;;;;5171618;27;20031;-56
2022/06/24 08:16:59;;;;;;;1.92;0.80;;;;;;;;;;5171345;27;20038;-56
2022/06/24 08:19:28;;;;;;;1.13;0.57;;;;;;;;;;5171797;27;20134;-56
2022/06/24 08:21:55;;;;;;;2.40;0.60;;;;;;;;;;5171275;27;20125;-54
2022/06/24 08:24:22;;;;;;;2.25;0.50;;;;;;;;;;5171603;27;20492;-56
2022/06/24 08:26:50;;;;;;;2.83;0.70;;;;;;;;;;5171106;27;20518;-54
2022/06/24 08:29:17;;;;;;;1.40;0.70;;;;;;;;;;5171192;27;20454;-58
2022/06/24 08:31:45;;;;;;;3.35;0.80;;;;;;;;;;5171266;27;20100;-54
2022/06/24 08:34:12;;;;;;;0.98;0.60;;;;;;;;;;5171049;27;20031;-55
2022/06/24 08:36:40;;;;;;;1.35;0.65;;;;;;;;;;5171258;27;20043;-49
2022/06/24 08:39:07;;;;;;;1.33;0.60;;;;;;;;;;5171246;27;20385;-52
2022/06/24 08:41:34;;;;;;;0.95;0.50;;;;;;;;;;5171327;27;20530;-45
2022/06/24 08:44:01;;;;;;;1.73;0.90;;;;;;;;;;5171085;27;20045;-49
2022/06/24 08:46:29;;;;;;;12.38;7.97;;;;;;;;;;5170974;27;20035;-54
2022/06/24 08:48:58;;;;;;;3.72;1.90;;;;;;;;;;5170860;27;20488;-58
2022/06/24 08:51:27;;;;;;;1.45;0.70;;;;;;;;;;5170476;27;20114;-55
2022/06/24 08:54:00;;;;;;;2.00;0.80;;;;;;;;;;5170940;27;20044;-57
2022/06/24 08:56:48;;;;;;;3.50;0.75;;;;;;;;;;5170600;27;20505;-58
2022/06/24 08:59:15;;;;;;;2.67;0.70;;;;;;;;;;5170826;27;20039;-57
2022/06/24 09:01:43;;;;;;;1.35;0.60;;;;;;;;;;5167902;27;20061;-57
2022/06/24 09:04:10;;;;;;;1.25;0.70;;;;;;;;;;5156913;27;20045;-53
2022/06/24 09:06:40;;;;;;;1.35;0.60;;;;;;;;;;5156951;27;20037;-57
2022/06/24 09:09:08;;;;;;;3.20;0.73;;;;;;;;;;5157003;27;20493;-57
2022/06/24 09:11:40;;;;;;;3.25;0.73;;;;;;;;;;5156372;27;20043;-56
2022/06/24 09:14:09;;;;;;;0.95;0.63;;;;;;;;;;5156296;27;20508;-58
2022/06/24 09:16:37;;;;;;;2.53;0.68;;;;;;;;;;5156547;27;20478;-57
2022/06/24 09:19:17;;;;;;;1.48;0.70;;;;;;;;;;5156433;27;20541;-57
2022/06/24 09:21:44;;;;;;;0.90;0.57;;;;;;;;;;5156643;27;20074;-58
2022/06/24 09:24:12;;;;;;;1.30;0.70;;;;;;;;;;5156361;27;20042;-58
2022/06/24 09:26:41;;;;;;;2.28;0.50;;;;;;;;;;5156415;27;20039;-58
2022/06/24 09:29:14;;;;;;;0.98;0.52;;;;;;;;;;5156566;27;20035;-57
2022/06/24 09:31:41;;;;;;;;;;;;;;;;;;5156421;27;20066;-57
2022/06/24 09:34:14;;;;;;;1.27;0.60;;;;;;;;;;5156535;27;19921;-58
2022/06/24 09:36:43;;;;;;;1.25;0.70;;;;;;;;;;5155746;27;20042;-57
2022/06/24 09:39:12;;;;;;;2.28;0.60;;;;;;;;;;5156128;27;20513;-58
2022/06/24 09:41:50;;;;;;;1.17;0.60;;;;;;;;;;5155970;27;20057;-59
2022/06/24 09:44:18;;;;;;;1.00;0.60;;;;;;;;;;5156246;27;20039;-55
2022/06/24 09:46:46;;;;;;;1.38;0.60;;;;;;;;;;5155385;27;20370;-58
2022/06/24 09:49:16;;;;;;;0.70;0.60;;;;;;;;;;5155636;27;20043;-58
2022/06/24 09:51:44;;;;;;;1.67;0.70;;;;;;;;;;5133628;27;20574;-59
2022/06/24 09:54:14;;;;;;;2.03;0.77;;;;;;;;;;5135122;27;20039;-57
2022/06/24 09:56:44;;;;;;;1.85;0.60;;;;;;;;;;5134910;27;20058;-57
2022/06/24 10:02:00;;;;;;;1.17;0.60;;;;;;;;;;5134924;27;20490;-58
2022/06/24 10:04:30;;;;;;;1.05;0.60;;;;;;;;;;5134673;27;20035;-59
2022/06/24 10:07:00;;;;;;;2.28;0.75;;;;;;;;;;5134844;27;20039;-58
2022/06/24 10:09:30;;;;;;;0.98;0.57;;;;;;;;;;5133329;27;20035;-55
2022/06/24 10:11:58;;;;;;;1.38;0.60;;;;;;;;;;5134694;27;20043;-57
2022/06/24 10:14:27;;;;;;;0.43;0.43;;;;;;;;;;5133567;27;20059;-58
2022/06/24 10:16:58;;;;;;;0.82;0.60;;;;;;;;;;5134774;27;20035;-58
2022/06/24 10:19:27;;;;;;;1.33;0.60;;;;;;;;;;5134778;27;20037;-57
2022/06/24 10:21:55;;;;;;;2.42;0.50;;;;;;;;;;5134316;27;20114;-58
2022/06/24 10:24:22;;;;;;;1.65;0.60;;;;;;;;;;5134590;27;20816;-57
2022/06/24 10:26:51;;;;;;;0.85;0.60;;;;;;;;;;5134145;27;20072;-58
2022/06/24 10:29:21;;;;;;;0.85;0.50;;;;;;;;;;5134209;27;20047;-54
2022/06/24 10:31:52;;;;;;;1.80;0.70;;;;;;;;;;5134148;27;20379;-57
2022/06/24 10:34:22;;;;;;;5.20;2.03;;;;;;;;;;5134199;27;20092;-53
2022/06/24 10:36:50;;;;;;;2.35;1.08;;;;;;;;;;5134002;27;20375;-58
2022/06/24 10:39:22;;;;;;;1.00;0.60;;;;;;;;;;5134035;27;20046;-58
2022/06/24 10:42:04;;;;;;;0.73;0.50;;;;;;;;;;5134084;27;20114;-57
2022/06/24 10:44:38;;;;;;;2.23;0.60;;;;;;;;;;5134169;27;20036;-57
2022/06/24 10:47:05;;;;;;;0.75;0.50;;;;;;;;;;5134145;27;20367;-57
2022/06/24 10:50:09;;;;;;;0.93;0.60;;;;;;;;;;5133987;27;20043;-58
2022/06/24 10:52:48;;;;;;;1.10;0.60;;;;;;;;;;5113599;28;20042;-58
2022/06/24 10:55:15;;;;;;;2.58;0.50;;;;;;;;;;5113269;28;20063;-58
2022/06/24 10:57:54;;;;;;;0.75;0.50;;;;;;;;;;5113511;28;20036;-57
2022/06/24 11:00:39;;;;;;;0.75;0.55;;;;;;;;;;5112744;28;20047;-58
2022/06/24 11:03:34;;;;;;;1.58;0.65;;;;;;;;;;5113305;28;20482;-58
2022/06/24 11:06:01;;;;;;;1.45;0.63;;;;;;;;;;5113317;28;20120;-56
2022/06/24 11:08:35;;;;;;;1.23;0.70;;;;;;;;;;5112913;28;20039;-57
2022/06/24 11:11:04;;;;;;;1.10;0.68;;;;;;;;;;5078834;28;20388;-57
2022/06/24 11:13:31;;;;;;;3.05;0.73;;;;;;;;;;5071050;28;20048;-58
2022/06/24 11:16:00;;;;;;;1.35;0.63;;;;;;;;;;5072364;28;20064;-68
2022/06/24 11:18:27;;;;;;;8.10;4.53;;;;;;;;;;5072548;28;20558;-58
2022/06/24 11:21:03;;;;;;;4.05;1.50;;;;;;;;;;5072111;28;20040;-58
2022/06/24 11:23:33;;;;;;;1.65;0.90;;;;;;;;;;5072311;28;20048;-56
2022/06/24 11:26:09;;;;;;;4.28;0.68;;;;;;;;;;5071441;28;20369;-57
2022/06/24 11:28:38;;;;;;;0.95;0.70;;;;;;;;;;5072364;28;20413;-57
2022/06/24 11:31:40;;;;;;;0.88;0.68;;;;;;;;;;5072101;28;20033;-53
2022/06/24 11:34:11;;;;;;;1.07;0.50;;;;;;;;;;5071120;28;20165;-57
2022/06/24 11:36:41;;;;;;;1.33;0.60;;;;;;;;;;5072241;28;20119;-58
2022/06/24 11:39:10;;;;;;;3.63;0.75;;;;;;;;;;5072235;28;20120;-57
2022/06/24 11:41:47;;;;;;;1.00;0.40;;;;;;;;;;5070992;28;20041;-57
2022/06/24 11:44:38;;;;;;;0.88;0.50;;;;;;;;;;5071007;28;20048;-57
2022/06/24 11:47:06;;;;;;;1.38;0.73;;;;;;;;;;5070450;28;20048;-56
2022/06/24 11:49:34;;;;;;;1.33;0.60;;;;;;;;;;5069197;28;20040;-57
2022/06/24 11:52:02;;;;;;;1.27;0.70;;;;;;;;;;5071108;28;20474;-58
2022/06/24 11:54:31;;;;;;;2.67;0.80;;;;;;;;;;5090927;28;20116;-57
2022/06/24 11:56:59;;;;;;;1.02;0.70;;;;;;;;;;5091004;28;20070;-59
2022/06/24 11:59:29;;;;;;;1.08;0.57;;;;;;;;;;5090669;28;20032;-58
2022/06/24 12:01:57;;;;;;;2.47;0.70;;;;;;;;;;5090078;28;20036;-57
2022/06/24 12:04:26;;;;;;;2.70;0.70;;;;;;;;;;5082865;28;20498;-58
2022/06/24 12:07:06;;;;;;;2.33;0.60;;;;;;;;;;5069871;28;20406;-57
2022/06/24 12:09:35;;;;;;;1.15;0.70;;;;;;;;;;5069790;28;20049;-56
2022/06/24 12:12:11;;;;;;;1.38;0.50;;;;;;;;;;5069859;28;20102;-58
2022/06/24 12:14:39;;;;;;;0.93;0.50;;;;;;;;;;5070981;28;20049;-58
2022/06/24 12:17:09;;;;;;;0.98;0.50;;;;;;;;;;5072006;28;20052;-57
2022/06/24 12:20:00;;;;;;;1.27;0.50;;;;;;;;;;5072050;28;20037;-57
2022/06/24 12:22:28;;;;;;;0.95;0.57;;;;;;;;;;5071914;28;20047;-57
2022/06/24 12:25:05;;;;;;;2.10;0.60;;;;;;;;;;5071493;28;20483;-58
2022/06/24 12:27:34;;;;;;;1.42;0.50;;;;;;;;;;5071632;28;20044;-58
2022/06/24 12:30:02;;;;;;;1.27;0.60;;;;;;;;;;5071511;28;20055;-58
2022/06/24 12:32:48;;;;;;;56.22;48.70;;;;;;;;;;5071714;28;20048;-59
2022/06/24 12:35:28;;;;;;;3.85;2.20;;;;;;;;;;5071523;28;20033;-58
2022/06/24 12:37:55;;;;;;;0.95;0.50;;;;;;;;;;5073353;28;20039;-58
2022/06/24 12:40:23;;;;;;;1.75;0.60;;;;;;;;;;5075302;28;20036;-58
2022/06/24 12:43:23;;;;;;;0.88;0.57;;;;;;;;;;5075198;28;20444;-58
2022/06/24 12:45:52;;;;;;;3.05;0.40;;;;;;;;;;5031447;28;20455;-57
2022/06/24 12:51:12;;;;;;;0.88;0.60;;;;;;;;;;5096871;28;20048;-58
2022/06/24 12:53:46;;;;;;;2.70;0.70;;;;;;;;;;5115018;28;20036;-57
2022/06/24 12:56:13;;;;;;;2.90;0.70;;;;;;;;;;5115651;28;20058;-58
2022/06/24 12:58:40;;;;;;;1.25;0.60;;;;;;;;;;5115674;28;20031;-56
2022/06/24 13:01:08;;;;;;;0.95;0.50;;;;;;;;;;5115753;28;20036;-57
2022/06/24 13:03:35;;;;;;;0.75;0.60;;;;;;;;;;5115575;28;20040;-52
2022/06/24 13:06:02;;;;;;;1.00;0.50;;;;;;;;;;5114934;28;20043;-57
2022/06/24 13:08:30;;;;;;;1.02;0.60;;;;;;;;;;5115461;28;20040;-57
2022/06/24 13:10:57;;;;;;;0.77;0.50;;;;;;;;;;5115243;28;20032;-58
2022/06/24 13:13:28;;;;;;;2.40;0.52;;;;;;;;;;5115136;28;20043;-59
2022/06/24 13:15:55;;;;;;;1.35;0.57;;;;;;;;;;5115334;28;20623;-57
2022/06/24 13:18:22;;;;;;;1.02;0.60;;;;;;;;;;5115276;28;20036;-56
2022/06/24 13:20:50;;;;;;;1.08;0.47;;;;;;;;;;5115161;28;20046;-58
2022/06/24 13:23:17;;;;;;;4.20;1.70;;;;;;;;;;5115015;28;20402;-63
2022/06/24 13:25:45;;;;;;;50.97;33.58;;;;;;;;;;5115036;28;20055;-53
2022/06/24 13:28:12;;;;;;;1.73;0.98;;;;;;;;;;5114583;28;20043;-58
2022/06/24 13:30:40;;;;;;;1.38;0.50;;;;;;;;;;5115153;28;20498;-58
2022/06/24 13:33:07;;;;;;;1.60;0.60;;;;;;;;;;5115067;28;20533;-58
2022/06/24 13:35:34;;;;;;;1.00;0.60;;;;;;;;;;5101629;28;20043;-58
2022/06/24 13:38:01;;;;;;;0.98;0.60;;;;;;;;;;5094565;28;20055;-58
2022/06/24 13:40:29;;;;;;;1.10;0.63;;;;;;;;;;5094110;28;20040;-58
2022/06/24 13:42:57;;;;;;;0.88;0.60;;;;;;;;;;5094323;28;20098;-58
2022/06/24 13:45:24;;;;;;;1.80;0.70;;;;;;;;;;5094492;28;20395;-58
2022/06/24 13:47:52;;;;;;;2.95;0.60;;;;;;;;;;5094132;28;20036;-57
2022/06/24 13:50:20;;;;;;;2.15;0.75;;;;;;;;;;5094041;28;20044;-58
2022/06/24 13:52:49;;;;;;;1.83;0.80;;;;;;;;;;5093603;28;20093;-58
2022/06/24 13:55:16;;;;;;;3.85;1.00;;;;;;;;;;5091933;28;20036;-57
2022/06/24 13:57:43;;;;;;;1.58;0.70;;;;;;;;;;5092201;28;20579;-57
2022/06/24 14:00:11;;;;;;;1.65;0.73;;;;;;;;;;5092055;28;20570;-59
2022/06/24 14:02:38;;;;;;;2.72;0.77;;;;;;;;;;5092255;28;20388;-57
2022/06/24 14:05:05;;;;;;;4.40;0.95;;;;;;;;;;5092163;28;20064;-57
2022/06/24 14:07:32;;;;;;;1.65;0.77;;;;;;;;;;5092326;28;20114;-57
2022/06/24 14:10:01;;;;;;;1.45;0.70;;;;;;;;;;5093835;28;20040;-58
2022/06/24 14:12:48;;;;;;;1.83;0.70;;;;;;;;;;5093615;28;20498;-58
2022/06/24 14:15:16;;;;;;;1.60;0.70;;;;;;;;;;5093682;28;20079;-58
2022/06/24 14:17:44;;;;;;;1.13;0.70;;;;;;;;;;5093804;28;20127;-57
2022/06/24 14:20:12;;;;;;;3.95;0.60;;;;;;;;;;5093455;28;20399;-50
2022/06/24 14:25:27;;;;;;;1.02;0.70;;;;;;;;;;5093703;28;20047;-58
2022/06/24 14:27:54;;;;;;;1.63;0.80;;;;;;;;;;5095903;28;20093;-59
2022/06/24 14:30:22;;;;;;;1.65;0.80;;;;;;;;;;5113968;28;20111;-58
2022/06/24 14:32:49;;;;;;;1.75;1.00;;;;;;;;;;5113350;28;20044;-56
2022/06/24 14:35:16;;;;;;;3.30;1.48;;;;;;;;;;5113573;28;20490;-57
2022/06/24 14:40:30;;;;;;;1.42;0.85;;;;;;;;;;5113571;28;20491;-58
2022/06/24 14:43:17;;;;;;;3.53;2.30;;;;;;;;;;5113709;28;20494;-58
2022/06/24 14:45:44;;;;;;;2.65;0.82;;;;;;;;;;5113564;28;20040;-56
2022/06/24 14:48:12;;;;;;;4.45;2.00;;;;;;;;;;5113584;28;20070;-54
2022/06/24 14:50:39;;;;;;;1.52;0.88;;;;;;;;;;5113119;28;20051;-57
2022/06/24 14:53:07;;;;;;;1.85;0.80;;;;;;;;;;5113267;28;20471;-58
2022/06/24 14:55:34;;;;;;;1.80;0.88;;;;;;;;;;5095085;28;20046;-57
2022/06/24 14:58:02;;;;;;;1.33;0.70;;;;;;;;;;5113330;28;20061;-58
2022/06/24 15:00:29;;;;;;;2.72;0.88;;;;;;;;;;5112479;28;20043;-58
2022/06/24 15:02:57;;;;;;;1.17;0.63;;;;;;;;;;5112891;28;20528;-57
2022/06/24 15:05:26;;;;;;;1.73;0.73;;;;;;;;;;5113075;28;20077;-58
2022/06/24 15:07:53;;;;;;;1.75;1.13;;;;;;;;;;5112939;28;20048;-59
2022/06/24 15:10:21;;;;;;;1.40;0.90;;;;;;;;;;5112847;28;20047;-59
2022/06/24 15:12:48;;;;;;;1.83;1.33;;;;;;;;;;5112593;28;20048;-58
2022/06/24 15:15:15;;;;;;;4.35;2.42;;;;;;;;;;5112898;28;20050;-58
2022/06/24 15:17:43;;;;;;;3.80;1.13;;;;;;;;;;5112937;28;20402;-58